aviador You're here:

ZBTJ Decoded Metar

TIANJIN in CHINA
Report Time2017-08-16 19:00:00
UTC Time2017-08-16 19:34:02
Flight Rules ifr IFR
Wind040° at 4 kt
W.Decomp.*RWY 34: 1.6 kt HW 3.7 kt RCW
W.Rank040° ranks 32
Current wind is below 040° avg. (6.3)
Visibility4500 m
Phenomena:Mist
Clouds:Broken 026 Hf
Expected CloudBase > 1,200 ft AGL from Temp-Dew spread
Ceiling2,600 ft
Temp23°C (ISA +8)
Dew Point20°C (83% RH)
QNH1007 hPa
Density Alt1,453 ft
Elevation10 ft
Report Wrong Elevation
Raw Report
METAR ZBTJ 161900Z 04002MPS 330V080 4500 BR BKN026 23/20 Q1007
NOSIG=

Extra information for ZBTJ:More info

Metar Taf Metar & Taf Last 4 Metars F.Rules Stats Wind Profile Meteogram Temp Stats Airport Information Weather charts Add Link Nearby VenuesMetar ALERT Operation Metar Decoded Social comments